Time;durP1;ratioP1;P1;durP2;ratioP2;P2;SDS_P1;SDS_P2;PMS_P1;PMS_P2;Temp;Humidity;BMP_temperature;BMP_pressure;BME280_temperature;BME280_humidity;BME280_pressure;Samples;Min_cycle;Max_cycle;Signal;HPM_P1;HPM_P2
2021/07/11 00:01:43;;;;;;;;;;;23.90;52.30;;;;;;1542501;76;731;-73
2021/07/11 00:03:45;;;;;;;;;;;23.90;52.30;;;;;;1561399;75;713;-72
2021/07/11 00:05:47;;;;;;;;;;;23.90;52.30;;;;;;1569885;75;1258;-72
2021/07/11 00:07:49;;;;;;;;;;;24.00;52.30;;;;;;1567828;75;718;-71
2021/07/11 00:09:51;;;;;;;;;;;23.90;52.30;;;;;;1560161;75;1930;-73
2021/07/11 00:11:53;;;;;;;;;;;23.90;52.30;;;;;;1562686;75;790;-74
2021/07/11 00:13:55;;;;;;;;;;;23.90;52.30;;;;;;1556299;75;726;-73
2021/07/11 00:15:57;;;;;;;;;;;23.90;52.30;;;;;;1564432;75;1074;-72
2021/07/11 00:18:01;;;;;;;;;;;23.90;52.30;;;;;;1565273;75;714;-72
2021/07/11 00:20:03;;;;;;;;;;;23.90;52.30;;;;;;1561331;75;1150;-73
2021/07/11 00:22:05;;;;;;;;;;;23.90;52.30;;;;;;1564504;75;707;-72
2021/07/11 00:24:07;;;;;;;;;;;23.90;52.30;;;;;;1570400;75;719;-72
2021/07/11 00:26:09;;;;;;;;;;;23.90;52.30;;;;;;1560207;75;1130;-73
2021/07/11 00:28:11;;;;;;;;;;;23.90;52.30;;;;;;1569138;75;713;-73
2021/07/11 00:30:13;;;;;;;;;;;23.90;52.30;;;;;;1562716;75;1950;-73
2021/07/11 00:32:14;;;;;;;;;;;23.90;52.30;;;;;;1565860;75;662;-72
2021/07/11 00:34:16;;;;;;;;;;;24.00;52.30;;;;;;1562609;75;720;-73
2021/07/11 00:36:18;;;;;;;;;;;23.90;52.30;;;;;;1565395;75;1126;-74
2021/07/11 00:38:20;;;;;;;;;;;23.90;52.30;;;;;;1567472;75;656;-72
2021/07/11 00:40:22;;;;;;;;;;;23.90;52.30;;;;;;1565051;75;703;-72
2021/07/11 00:42:24;;;;;;;;;;;23.90;52.30;;;;;;1568235;75;706;-73
2021/07/11 00:44:26;;;;;;;;;;;23.90;52.20;;;;;;1563011;75;715;-73
2021/07/11 00:46:28;;;;;;;;;;;23.90;52.30;;;;;;1565321;75;1137;-73
2021/07/11 00:48:29;;;;;;;;;;;23.90;52.30;;;;;;1565324;75;695;-73
2021/07/11 00:50:31;;;;;;;;;;;23.90;52.20;;;;;;1570173;75;1935;-72
2021/07/11 00:52:33;;;;;;;;;;;23.90;52.30;;;;;;1560121;75;715;-73
2021/07/11 00:54:35;;;;;;;;;;;23.90;52.20;;;;;;1569027;75;723;-73
2021/07/11 00:56:37;;;;;;;;;;;23.90;52.30;;;;;;1568659;71;218346;-80
2021/07/11 00:58:39;;;;;;;;;;;23.90;52.30;;;;;;1591168;74;741;-80
2021/07/11 01:00:42;;;;;;;;;;;23.90;52.30;;;;;;1590706;74;687;-83
2021/07/11 01:02:54;;;;;;;;;;;23.90;52.30;;;;;;1570243;74;705;-80
2021/07/11 01:05:00;;;;;;;;;;;23.90;52.30;;;;;;1577070;74;711;-80
2021/07/11 01:07:03;;;;;;;;;;;23.90;52.30;;;;;;1597355;74;1124;-81
2021/07/11 01:09:06;;;;;;;;;;;24.00;52.30;;;;;;1597331;74;792;-80
2021/07/11 01:11:10;;;;;;;;;;;23.90;52.30;;;;;;1569051;74;222018;-58
2021/07/11 01:13:12;;;;;;;;;;;23.90;52.30;;;;;;1594486;73;1259;-57
2021/07/11 01:15:14;;;;;;;;;;;23.90;52.30;;;;;;1589397;73;749;-58
2021/07/11 01:17:17;;;;;;;;;;;23.90;52.30;;;;;;1609305;73;719;-57
2021/07/11 01:19:26;;;;;;;;;;;23.90;52.30;;;;;;1620888;73;696;-58
2021/07/11 01:21:28;;;;;;;;;;;23.90;52.20;;;;;;1622869;73;1196;-58
2021/07/11 01:23:40;;;;;;;;;;;23.90;52.20;;;;;;1597922;73;738;-59
2021/07/11 01:25:43;;;;;;;;;;;23.90;52.20;;;;;;1596837;73;758;-58
2021/07/11 01:27:44;;;;;;;;;;;23.90;52.20;;;;;;1606439;73;702;-59
2021/07/11 01:29:47;;;;;;;;;;;23.80;52.10;;;;;;1607368;73;728;-58
2021/07/11 01:31:48;;;;;;;;;;;23.90;52.20;;;;;;1620231;73;1919;-58
2021/07/11 01:33:50;;;;;;;;;;;23.90;52.30;;;;;;1616015;73;679;-59
2021/07/11 01:35:52;;;;;;;;;;;23.90;52.30;;;;;;1591234;73;745;-57
2021/07/11 01:37:54;;;;;;;;;;;23.90;52.30;;;;;;1588220;73;719;-57
2021/07/11 01:39:56;;;;;;;;;;;23.90;52.30;;;;;;1618386;73;1069;-58
2021/07/11 01:41:58;;;;;;;;;;;23.90;52.20;;;;;;1613113;73;1111;-59
2021/07/11 01:44:00;;;;;;;;;;;23.90;52.20;;;;;;1615523;73;720;-57
2021/07/11 01:46:02;;;;;;;;;;;23.90;52.30;;;;;;1614210;73;796;-58
2021/07/11 01:48:04;;;;;;;;;;;23.90;52.30;;;;;;1600423;73;736;-58
2021/07/11 01:50:07;;;;;;;;;;;23.90;52.30;;;;;;1584061;75;719;-57
2021/07/11 01:52:09;;;;;;;;;;;23.90;52.20;;;;;;1617341;73;1927;-58
2021/07/11 01:54:11;;;;;;;;;;;23.90;52.20;;;;;;1596265;72;715;-58
2021/07/11 01:56:13;;;;;;;;;;;23.90;52.30;;;;;;1626124;73;782;-58
2021/07/11 01:58:14;;;;;;;;;;;23.90;52.20;;;;;;1618702;73;781;-58
2021/07/11 02:00:16;;;;;;;;;;;23.90;52.30;;;;;;1607624;73;701;-57
2021/07/11 02:02:18;;;;;;;;;;;23.90;52.20;;;;;;1612140;72;1100;-58
2021/07/11 02:04:20;;;;;;;;;;;23.90;52.20;;;;;;1594909;73;669;-57
2021/07/11 02:06:22;;;;;;;;;;;23.80;52.10;;;;;;1622146;73;692;-57
2021/07/11 02:08:24;;;;;;;;;;;23.90;52.30;;;;;;1620180;73;680;-57
2021/07/11 02:10:26;;;;;;;;;;;23.90;52.20;;;;;;1604115;73;1933;-58
2021/07/11 02:12:29;;;;;;;;;;;23.80;52.10;;;;;;1598663;73;1160;-57
2021/07/11 02:14:31;;;;;;;;;;;23.90;52.20;;;;;;1617950;73;687;-57
2021/07/11 02:16:40;;;;;;;;;;;23.90;52.20;;;;;;1612030;73;706;-58
2021/07/11 02:18:42;;;;;;;;;;;23.90;52.20;;;;;;1617936;73;735;-57
2021/07/11 02:20:45;;;;;;;;;;;23.90;52.20;;;;;;1604251;73;713;-59
2021/07/11 02:22:47;;;;;;;;;;;23.90;52.20;;;;;;1603505;73;1155;-57
2021/07/11 02:24:49;;;;;;;;;;;23.90;52.20;;;;;;1615637;73;801;-57
2021/07/11 02:26:51;;;;;;;;;;;23.90;52.20;;;;;;1621784;73;806;-57
2021/07/11 02:28:53;;;;;;;;;;;23.90;52.20;;;;;;1601964;73;736;-57
2021/07/11 02:30:59;;;;;;;;;;;23.80;52.10;;;;;;1617035;73;1933;-57
2021/07/11 02:33:05;;;;;;;;;;;23.90;52.20;;;;;;1593443;73;2027;-57
2021/07/11 02:35:05;;;;;;;;;;;23.90;52.20;;;;;;1579594;75;1719;-57
2021/07/11 02:37:08;;;;;;;;;;;23.80;52.10;;;;;;1586324;73;663;-58
2021/07/11 02:39:11;;;;;;;;;;;23.90;52.30;;;;;;1613412;73;698;-59
2021/07/11 02:41:17;;;;;;;;;;;23.90;52.20;;;;;;1610223;73;745;-58
2021/07/11 02:43:19;;;;;;;;;;;23.90;52.20;;;;;;1612332;73;749;-57
2021/07/11 02:45:20;;;;;;;;;;;23.80;52.10;;;;;;1611601;73;789;-57
2021/07/11 02:47:23;;;;;;;;;;;23.90;52.20;;;;;;1603601;73;772;-58
2021/07/11 02:49:26;;;;;;;;;;;23.90;52.20;;;;;;1619471;73;755;-58
2021/07/11 02:51:28;;;;;;;;;;;23.90;52.20;;;;;;1613329;73;1915;-58
2021/07/11 02:53:31;;;;;;;;;;;23.90;52.20;;;;;;1602314;73;678;-57
2021/07/11 02:55:35;;;;;;;;;;;23.90;52.20;;;;;;1606587;73;672;-57
2021/07/11 02:57:37;;;;;;;;;;;23.90;52.20;;;;;;1597073;73;931;-57
2021/07/11 02:59:39;;;;;;;;;;;23.80;52.10;;;;;;1618587;73;726;-57
2021/07/11 03:01:41;;;;;;;;;;;23.90;52.10;;;;;;1595275;73;1111;-57
2021/07/11 03:03:43;;;;;;;;;;;23.80;52.10;;;;;;1614121;73;775;-59
2021/07/11 03:05:45;;;;;;;;;;;23.90;52.10;;;;;;1590853;73;730;-58
2021/07/11 03:07:46;;;;;;;;;;;23.80;52.10;;;;;;1600149;73;709;-57
2021/07/11 03:09:48;;;;;;;;;;;23.90;52.10;;;;;;1596636;73;711;-58
2021/07/11 03:11:50;;;;;;;;;;;23.80;52.10;;;;;;1608817;73;1975;-57
2021/07/11 03:13:52;;;;;;;;;;;23.80;52.10;;;;;;1615751;73;689;-57
2021/07/11 03:15:54;;;;;;;;;;;23.80;52.10;;;;;;1613495;73;727;-58
2021/07/11 03:17:57;;;;;;;;;;;23.90;52.10;;;;;;1617725;73;726;-58
2021/07/11 03:19:58;;;;;;;;;;;23.90;52.10;;;;;;1606838;73;718;-57
2021/07/11 03:22:00;;;;;;;;;;;23.80;52.10;;;;;;1602153;73;1143;-58
2021/07/11 03:24:02;;;;;;;;;;;23.80;52.10;;;;;;1583385;73;765;-58
2021/07/11 03:26:04;;;;;;;;;;;23.90;52.10;;;;;;1587799;73;757;-58
2021/07/11 03:28:07;;;;;;;;;;;23.90;52.20;;;;;;1584723;73;748;-57
2021/07/11 03:30:11;;;;;;;;;;;23.90;52.10;;;;;;1616777;73;706;-58
2021/07/11 03:32:13;;;;;;;;;;;23.90;52.10;;;;;;1616237;73;1908;-57
2021/07/11 03:34:14;;;;;;;;;;;23.90;52.10;;;;;;1586557;74;1274;-58
2021/07/11 03:36:16;;;;;;;;;;;23.80;52.10;;;;;;1608456;73;661;-57
2021/07/11 03:38:19;;;;;;;;;;;23.90;52.20;;;;;;1606822;73;728;-58
2021/07/11 03:40:22;;;;;;;;;;;23.90;52.10;;;;;;1598133;73;781;-57
2021/07/11 03:42:24;;;;;;;;;;;23.90;52.20;;;;;;1604600;73;1139;-58
2021/07/11 03:44:27;;;;;;;;;;;23.90;52.20;;;;;;1598244;73;699;-59
2021/07/11 03:46:30;;;;;;;;;;;23.80;52.10;;;;;;1599263;73;771;-58
2021/07/11 03:48:33;;;;;;;;;;;23.90;52.20;;;;;;1613322;73;708;-59
2021/07/11 03:50:36;;;;;;;;;;;23.80;52.10;;;;;;1594591;73;757;-58
2021/07/11 03:52:40;;;;;;;;;;;23.90;52.10;;;;;;1619533;72;1921;-59
2021/07/11 03:54:42;;;;;;;;;;;23.80;52.10;;;;;;1602278;73;2008;-59
2021/07/11 03:56:44;;;;;;;;;;;23.80;52.10;;;;;;1593526;73;716;-59
2021/07/11 03:58:45;;;;;;;;;;;23.80;52.10;;;;;;1618678;73;652;-58
2021/07/11 04:00:49;;;;;;;;;;;23.80;52.00;;;;;;1606453;73;778;-58
2021/07/11 04:02:52;;;;;;;;;;;23.90;52.10;;;;;;1625239;73;1132;-57
2021/07/11 04:04:54;;;;;;;;;;;23.80;52.10;;;;;;1595472;73;788;-58
2021/07/11 04:06:56;;;;;;;;;;;23.90;52.10;;;;;;1588990;73;721;-58
2021/07/11 04:08:59;;;;;;;;;;;23.80;52.10;;;;;;1580900;73;662;-57
2021/07/11 04:11:01;;;;;;;;;;;23.80;52.10;;;;;;1603762;73;1951;-59
2021/07/11 04:13:03;;;;;;;;;;;23.80;52.10;;;;;;1615965;73;1168;-59
2021/07/11 04:15:05;;;;;;;;;;;23.90;52.10;;;;;;1592188;73;812;-59
2021/07/11 04:17:08;;;;;;;;;;;23.80;52.00;;;;;;1602029;73;773;-58
2021/07/11 04:19:10;;;;;;;;;;;23.80;52.10;;;;;;1627184;73;686;-59
2021/07/11 04:21:12;;;;;;;;;;;23.80;52.10;;;;;;1597358;73;706;-58
2021/07/11 04:23:14;;;;;;;;;;;23.80;52.10;;;;;;1601558;73;1068;-58
2021/07/11 04:25:16;;;;;;;;;;;23.80;52.10;;;;;;1607514;73;666;-58
2021/07/11 04:27:18;;;;;;;;;;;23.80;52.00;;;;;;1603741;73;692;-59
2021/07/11 04:29:20;;;;;;;;;;;23.80;52.10;;;;;;1600088;73;699;-57
2021/07/11 04:31:22;;;;;;;;;;;23.80;52.10;;;;;;1587609;73;1945;-57
2021/07/11 04:33:24;;;;;;;;;;;23.80;52.00;;;;;;1592922;73;734;-57
2021/07/11 04:35:26;;;;;;;;;;;23.80;52.00;;;;;;1610033;73;716;-57
2021/07/11 04:37:27;;;;;;;;;;;23.80;52.10;;;;;;1604445;73;695;-58
2021/07/11 04:39:30;;;;;;;;;;;23.80;52.10;;;;;;1602501;73;747;-57
2021/07/11 04:41:32;;;;;;;;;;;23.80;52.10;;;;;;1606331;72;1141;-57
2021/07/11 04:43:34;;;;;;;;;;;23.80;52.10;;;;;;1578087;74;703;-58
2021/07/11 04:45:35;;;;;;;;;;;23.80;52.10;;;;;;1600604;73;772;-58
2021/07/11 04:47:37;;;;;;;;;;;23.90;52.10;;;;;;1590311;73;760;-59
2021/07/11 04:49:39;;;;;;;;;;;23.80;52.00;;;;;;1616530;73;749;-58
2021/07/11 04:51:41;;;;;;;;;;;23.80;52.10;;;;;;1619076;72;1922;-59
2021/07/11 04:53:43;;;;;;;;;;;23.80;52.00;;;;;;1603589;73;684;-58
2021/07/11 04:55:45;;;;;;;;;;;23.80;52.00;;;;;;1600225;73;659;-58
2021/07/11 04:57:47;;;;;;;;;;;23.80;52.00;;;;;;1589302;73;717;-56
2021/07/11 04:59:49;;;;;;;;;;;23.80;52.10;;;;;;1579801;73;761;-56
2021/07/11 05:01:51;;;;;;;;;;;23.80;52.10;;;;;;1596890;73;1121;-56
2021/07/11 05:03:53;;;;;;;;;;;23.80;52.10;;;;;;1596400;73;775;-57
2021/07/11 05:05:55;;;;;;;;;;;23.80;52.10;;;;;;1609349;73;794;-56
2021/07/11 05:07:57;;;;;;;;;;;23.90;52.10;;;;;;1606843;73;720;-55
2021/07/11 05:09:59;;;;;;;;;;;23.80;52.00;;;;;;1595409;73;864;-56
2021/07/11 05:12:01;;;;;;;;;;;23.80;52.00;;;;;;1617192;73;1954;-56
2021/07/11 05:14:03;;;;;;;;;;;23.80;52.10;;;;;;1607739;73;760;-56
2021/07/11 05:16:05;;;;;;;;;;;23.70;52.00;;;;;;1616539;73;719;-56
2021/07/11 05:18:10;;;;;;;;;;;23.80;52.00;;;;;;1619249;73;843;-56
2021/07/11 05:20:12;;;;;;;;;;;23.80;52.00;;;;;;1596663;73;577;-57
2021/07/11 05:22:14;;;;;;;;;;;23.80;52.10;;;;;;1605276;72;1144;-57
2021/07/11 05:24:16;;;;;;;;;;;23.80;52.10;;;;;;1617111;73;791;-58
2021/07/11 05:26:18;;;;;;;;;;;23.80;52.10;;;;;;1601164;73;808;-57
2021/07/11 05:28:20;;;;;;;;;;;23.80;52.10;;;;;;1591992;73;709;-57
2021/07/11 05:30:22;;;;;;;;;;;23.80;52.10;;;;;;1611627;73;713;-57
2021/07/11 05:32:24;;;;;;;;;;;23.70;52.00;;;;;;1610303;73;1944;-57
2021/07/11 05:34:25;;;;;;;;;;;23.80;52.00;;;;;;1606027;73;802;-57
2021/07/11 05:36:27;;;;;;;;;;;23.80;52.00;;;;;;1599799;73;792;-56
2021/07/11 05:38:29;;;;;;;;;;;23.80;52.00;;;;;;1618172;73;751;-57
2021/07/11 05:40:31;;;;;;;;;;;23.80;52.00;;;;;;1619750;73;719;-58
2021/07/11 05:42:33;;;;;;;;;;;23.80;52.10;;;;;;1614747;73;1083;-56
2021/07/11 05:44:35;;;;;;;;;;;23.80;52.00;;;;;;1606770;73;700;-58
2021/07/11 05:46:37;;;;;;;;;;;23.80;52.00;;;;;;1609229;73;701;-58
2021/07/11 05:48:39;;;;;;;;;;;23.80;52.00;;;;;;1598972;73;687;-57
2021/07/11 05:50:41;;;;;;;;;;;23.70;52.00;;;;;;1620221;73;725;-57
2021/07/11 05:52:43;;;;;;;;;;;23.80;52.00;;;;;;1602033;73;1975;-57
2021/07/11 05:54:44;;;;;;;;;;;23.80;52.00;;;;;;1612979;73;706;-58
2021/07/11 05:56:46;;;;;;;;;;;23.80;52.10;;;;;;1602811;73;717;-57
2021/07/11 05:58:48;;;;;;;;;;;23.80;52.10;;;;;;1602329;73;1080;-57
2021/07/11 06:00:50;;;;;;;;;;;23.80;52.00;;;;;;1617039;73;675;-56
2021/07/11 06:02:52;;;;;;;;;;;23.80;52.00;;;;;;1618823;73;1134;-57
2021/07/11 06:04:54;;;;;;;;;;;23.70;52.00;;;;;;1608884;73;568;-57
2021/07/11 06:06:56;;;;;;;;;;;23.80;52.00;;;;;;1592041;73;705;-56
2021/07/11 06:08:58;;;;;;;;;;;23.80;52.00;;;;;;1595138;73;783;-57
2021/07/11 06:10:59;;;;;;;;;;;23.80;52.00;;;;;;1607624;73;765;-57
2021/07/11 06:13:01;;;;;;;;;;;23.70;51.90;;;;;;1601750;73;1949;-57
2021/07/11 06:15:04;;;;;;;;;;;23.80;52.00;;;;;;1601257;73;786;-57
2021/07/11 06:17:06;;;;;;;;;;;23.80;52.00;;;;;;1607191;73;691;-57
2021/07/11 06:19:08;;;;;;;;;;;23.80;52.00;;;;;;1622979;73;706;-57
2021/07/11 06:21:10;;;;;;;;;;;23.80;52.00;;;;;;1603847;73;738;-57
2021/07/11 06:23:12;;;;;;;;;;;23.80;52.00;;;;;;1602446;73;1115;-57
2021/07/11 06:25:14;;;;;;;;;;;23.80;52.00;;;;;;1595584;73;714;-57
2021/07/11 06:27:16;;;;;;;;;;;23.80;52.00;;;;;;1591045;73;731;-56
2021/07/11 06:29:18;;;;;;;;;;;23.70;51.90;;;;;;1609852;73;708;-57
2021/07/11 06:31:19;;;;;;;;;;;23.80;52.00;;;;;;1592665;73;1124;-58
2021/07/11 06:33:21;;;;;;;;;;;23.80;52.00;;;;;;1619321;73;1932;-57
2021/07/11 06:35:24;;;;;;;;;;;23.80;51.90;;;;;;1613591;73;729;-56
2021/07/11 06:37:25;;;;;;;;;;;23.80;52.00;;;;;;1607406;73;722;-57
2021/07/11 06:39:27;;;;;;;;;;;23.80;52.00;;;;;;1615564;73;818;-57
2021/07/11 06:41:29;;;;;;;;;;;23.80;52.00;;;;;;1604342;73;1127;-57
2021/07/11 06:43:31;;;;;;;;;;;23.80;52.00;;;;;;1615812;73;768;-57
2021/07/11 06:45:33;;;;;;;;;;;23.70;52.00;;;;;;1594545;73;751;-56
2021/07/11 06:47:35;;;;;;;;;;;23.80;52.00;;;;;;1616074;73;691;-57
2021/07/11 06:49:37;;;;;;;;;;;23.80;52.00;;;;;;1614247;73;619;-57
2021/07/11 06:51:38;;;;;;;;;;;23.80;52.00;;;;;;1594312;73;1167;-57
2021/07/11 06:53:40;;;;;;;;;;;23.80;52.00;;;;;;1607946;73;1934;-57
2021/07/11 06:55:42;;;;;;;;;;;23.70;52.00;;;;;;1592450;73;743;-56
2021/07/11 06:57:44;;;;;;;;;;;23.80;52.00;;;;;;1591541;73;218683;-69
2021/07/11 06:59:46;;;;;;;;;;;23.80;52.00;;;;;;1564259;76;786;-69
2021/07/11 07:01:48;;;;;;;;;;;23.80;52.00;;;;;;1568520;75;720;-67
2021/07/11 07:03:50;;;;;;;;;;;23.80;52.00;;;;;;1586374;74;757;-68
2021/07/11 07:05:52;;;;;;;;;;;23.80;52.00;;;;;;1570636;75;682;-69
2021/07/11 07:07:54;;;;;;;;;;;23.70;52.00;;;;;;1558380;74;1203;-69
2021/07/11 07:09:56;;;;;;;;;;;23.80;52.00;;;;;;1568708;74;734;-69
2021/07/11 07:11:57;;;;;;;;;;;23.80;52.00;;;;;;1569809;74;726;-69
2021/07/11 07:13:59;;;;;;;;;;;23.70;52.00;;;;;;1565561;74;1947;-69
2021/07/11 07:16:01;;;;;;;;;;;23.80;52.00;;;;;;1564239;74;789;-69
2021/07/11 07:18:03;;;;;;;;;;;23.70;52.00;;;;;;1572220;74;1125;-69
2021/07/11 07:20:06;;;;;;;;;;;23.80;52.00;;;;;;1567699;74;703;-69
2021/07/11 07:22:08;;;;;;;;;;;23.80;52.00;;;;;;1563336;75;698;-66
2021/07/11 07:24:10;;;;;;;;;;;23.80;51.90;;;;;;1565165;76;775;-69
2021/07/11 07:26:12;;;;;;;;;;;23.80;52.00;;;;;;1566052;76;763;-69
2021/07/11 07:28:14;;;;;;;;;;;23.80;52.00;;;;;;1565843;75;1133;-69
2021/07/11 07:30:18;;;;;;;;;;;23.80;51.90;;;;;;1549379;75;757;-69
2021/07/11 07:32:20;;;;;;;;;;;23.80;51.90;;;;;;1555309;75;1920;-69
2021/07/11 07:34:21;;;;;;;;;;;23.80;52.00;;;;;;1564667;74;799;-69
2021/07/11 07:36:23;;;;;;;;;;;23.70;52.00;;;;;;1568820;74;763;-67
2021/07/11 07:38:25;;;;;;;;;;;23.80;52.00;;;;;;1562675;74;1097;-69
2021/07/11 07:40:27;;;;;;;;;;;23.70;52.00;;;;;;1563193;75;811;-69
2021/07/11 07:42:29;;;;;;;;;;;23.80;52.00;;;;;;1564837;76;753;-69
2021/07/11 07:44:31;;;;;;;;;;;23.80;52.00;;;;;;1566077;74;725;-68
2021/07/11 07:46:33;;;;;;;;;;;23.70;52.00;;;;;;1565259;75;842;-69
2021/07/11 07:48:35;;;;;;;;;;;23.70;52.00;;;;;;1565520;75;1161;-69
2021/07/11 07:50:37;;;;;;;;;;;23.80;51.90;;;;;;1557107;75;682;-69
2021/07/11 07:52:39;;;;;;;;;;;23.80;51.90;;;;;;1557972;75;1932;-69
2021/07/11 07:54:41;;;;;;;;;;;23.70;52.00;;;;;;1566080;76;694;-69
2021/07/11 07:56:43;;;;;;;;;;;23.80;52.00;;;;;;1564705;75;773;-69
2021/07/11 07:58:44;;;;;;;;;;;23.80;52.00;;;;;;1563996;75;1141;-70
2021/07/11 08:00:46;;;;;;;;;;;23.80;52.00;;;;;;1565893;74;719;-69
2021/07/11 08:02:48;;;;;;;;;;;23.80;52.00;;;;;;1565965;75;765;-69
2021/07/11 08:04:50;;;;;;;;;;;23.70;52.00;;;;;;1566100;75;633;-69
2021/07/11 08:06:52;;;;;;;;;;;23.70;52.00;;;;;;1563693;74;783;-69
2021/07/11 08:08:54;;;;;;;;;;;23.70;52.00;;;;;;1576149;74;1107;-69
2021/07/11 08:10:56;;;;;;;;;;;23.70;52.00;;;;;;1570600;74;759;-69
2021/07/11 08:12:58;;;;;;;;;;;23.80;52.00;;;;;;1567011;74;1940;-69
2021/07/11 08:14:59;;;;;;;;;;;23.70;51.90;;;;;;1566094;75;723;-69
2021/07/11 08:17:01;;;;;;;;;;;23.80;51.90;;;;;;1566069;76;714;-69
2021/07/11 08:19:03;;;;;;;;;;;23.80;51.90;;;;;;1555504;74;1092;-69
2021/07/11 08:21:05;;;;;;;;;;;23.70;51.90;;;;;;1566101;75;759;-69
2021/07/11 08:23:07;;;;;;;;;;;23.80;52.00;;;;;;1565959;75;714;-69
2021/07/11 08:25:09;;;;;;;;;;;23.80;52.00;;;;;;1565990;75;786;-69
2021/07/11 08:27:11;;;;;;;;;;;23.80;51.90;;;;;;1560122;75;720;-69
2021/07/11 08:29:13;;;;;;;;;;;23.70;52.00;;;;;;1558391;75;1140;-69
2021/07/11 08:31:15;;;;;;;;;;;23.80;51.90;;;;;;1563622;76;711;-69
2021/07/11 08:33:17;;;;;;;;;;;23.80;52.00;;;;;;1565843;74;1946;-68
2021/07/11 08:35:19;;;;;;;;;;;23.80;52.00;;;;;;1563127;75;769;-70
2021/07/11 08:37:21;;;;;;;;;;;23.80;52.00;;;;;;1560416;76;1089;-68
2021/07/11 08:39:23;;;;;;;;;;;23.70;52.00;;;;;;1566103;76;745;-69
2021/07/11 08:41:25;;;;;;;;;;;23.80;52.00;;;;;;1563032;75;770;-68
2021/07/11 08:43:27;;;;;;;;;;;23.70;51.90;;;;;;1565892;75;725;-68
2021/07/11 08:45:29;;;;;;;;;;;23.80;51.90;;;;;;1562742;74;716;-69
2021/07/11 08:47:30;;;;;;;;;;;23.70;52.00;;;;;;1556192;74;1182;-69
2021/07/11 08:49:32;;;;;;;;;;;23.80;51.90;;;;;;1566023;75;781;-68
2021/07/11 08:51:34;;;;;;;;;;;23.70;52.00;;;;;;1565970;74;772;-69
2021/07/11 08:53:36;;;;;;;;;;;23.70;51.90;;;;;;1565866;75;1947;-70
2021/07/11 08:55:38;;;;;;;;;;;23.70;52.00;;;;;;1566017;76;799;-68
2021/07/11 08:57:40;;;;;;;;;;;23.80;52.00;;;;;;1564737;75;1133;-69
2021/07/11 08:59:42;;;;;;;;;;;23.70;52.00;;;;;;1566103;74;779;-69
2021/07/11 09:01:44;;;;;;;;;;;23.70;51.90;;;;;;1563073;75;769;-69
2021/07/11 09:03:47;;;;;;;;;;;23.80;52.00;;;;;;1566086;76;783;-69
2021/07/11 09:05:51;;;;;;;;;;;23.80;52.00;;;;;;1530091;76;1198;-69
2021/07/11 09:08:00;;;;;;;;;;;23.70;51.90;;;;;;1566044;74;1930;-69
2021/07/11 09:10:03;;;;;;;;;;;23.80;52.00;;;;;;1570646;74;760;-68
2021/07/11 09:12:06;;;;;;;;;;;23.70;51.90;;;;;;1573754;74;782;-69
2021/07/11 09:14:10;;;;;;;;;;;23.70;52.00;;;;;;1558762;74;1931;-69
2021/07/11 09:16:11;;;;;;;;;;;23.80;51.90;;;;;;1564712;75;1942;-69
2021/07/11 09:18:14;;;;;;;;;;;23.80;51.90;;;;;;1533902;76;1138;-68
2021/07/11 09:20:16;;;;;;;;;;;23.80;51.90;;;;;;1553986;75;793;-69
2021/07/11 09:22:18;;;;;;;;;;;23.80;51.90;;;;;;1564217;74;776;-69
2021/07/11 09:24:20;;;;;;;;;;;23.80;51.90;;;;;;1563521;75;814;-69
2021/07/11 09:26:24;;;;;;;;;;;23.80;51.90;;;;;;1565640;75;777;-69
2021/07/11 09:28:26;;;;;;;;;;;23.80;51.90;;;;;;1563590;76;1125;-70
2021/07/11 09:30:28;;;;;;;;;;;23.80;51.90;;;;;;1566136;74;757;-69
2021/07/11 09:32:31;;;;;;;;;;;23.80;51.90;;;;;;1563455;75;785;-68
2021/07/11 09:34:33;;;;;;;;;;;23.80;51.90;;;;;;1597107;74;1945;-69
2021/07/11 09:36:35;;;;;;;;;;;23.80;51.90;;;;;;1574185;74;791;-69
2021/07/11 09:38:37;;;;;;;;;;;23.80;51.90;;;;;;1583958;74;1119;-70
2021/07/11 09:40:39;;;;;;;;;;;23.80;51.90;;;;;;1574042;73;728;-70
2021/07/11 09:42:42;;;;;;;;;;;23.70;51.90;;;;;;1586718;73;718;-69
2021/07/11 09:44:44;;;;;;;;;;;23.80;51.90;;;;;;1585748;73;724;-69
2021/07/11 09:46:45;;;;;;;;;;;23.80;51.80;;;;;;1581462;73;770;-69
2021/07/11 09:48:47;;;;;;;;;;;23.80;51.80;;;;;;1577428;74;1162;-70
2021/07/11 09:50:49;;;;;;;;;;;23.80;51.80;;;;;;1587137;73;773;-69
2021/07/11 09:52:52;;;;;;;;;;;23.80;51.80;;;;;;1574072;74;752;-69
2021/07/11 09:54:56;;;;;;;;;;;23.80;51.80;;;;;;1583936;74;1934;-66
2021/07/11 09:56:58;;;;;;;;;;;23.80;51.80;;;;;;1590052;74;1862;-70
2021/07/11 09:59:01;;;;;;;;;;;23.80;51.80;;;;;;1580685;73;1098;-69
2021/07/11 10:01:03;;;;;;;;;;;23.80;51.80;;;;;;1574022;75;1083;-69
2021/07/11 10:03:06;;;;;;;;;;;23.70;51.90;;;;;;1571626;73;696;-69
2021/07/11 10:05:08;;;;;;;;;;;23.80;51.80;;;;;;1580676;73;716;-69
2021/07/11 10:07:10;;;;;;;;;;;23.80;51.80;;;;;;1578585;75;720;-69
2021/07/11 10:09:12;;;;;;;;;;;23.80;51.80;;;;;;1606242;73;1121;-69
2021/07/11 10:11:14;;;;;;;;;;;23.80;51.80;;;;;;1579574;73;747;-69
2021/07/11 10:13:16;;;;;;;;;;;23.80;51.80;;;;;;1577949;74;1934;-68
2021/07/11 10:15:19;;;;;;;;;;;23.80;51.80;;;;;;1584549;74;751;-68
2021/07/11 10:17:20;;;;;;;;;;;23.80;51.80;;;;;;1579194;73;1133;-69
2021/07/11 10:19:22;;;;;;;;;;;23.80;51.80;;;;;;1578118;73;844;-69
2021/07/11 10:21:29;;;;;;;;;;;23.80;51.70;;;;;;1574297;73;769;-69
2021/07/11 10:23:32;;;;;;;;;;;23.80;51.80;;;;;;1583363;73;740;-69
2021/07/11 10:25:34;;;;;;;;;;;23.80;51.70;;;;;;1590346;73;647;-69
2021/07/11 10:27:36;;;;;;;;;;;23.80;51.70;;;;;;1576432;74;1160;-69
2021/07/11 10:29:40;;;;;;;;;;;23.80;51.70;;;;;;1578433;73;791;-70
2021/07/11 10:31:43;;;;;;;;;;;23.80;51.70;;;;;;1589100;73;1123;-65
2021/07/11 10:33:45;;;;;;;;;;;23.80;51.80;;;;;;1583248;73;1910;-69
2021/07/11 10:36:04;;;;;;;;;;;23.80;51.70;;;;;;1581902;74;764;-69
2021/07/11 10:38:05;;;;;;;;;;;23.80;51.70;;;;;;1571455;74;1200;-69
2021/07/11 10:40:08;;;;;;;;;;;23.80;51.70;;;;;;1580683;73;694;-69
2021/07/11 10:42:10;;;;;;;;;;;23.80;51.80;;;;;;1580548;73;710;-69
2021/07/11 10:44:13;;;;;;;;;;;23.80;51.70;;;;;;1587848;74;736;-69
2021/07/11 10:46:15;;;;;;;;;;;23.80;51.70;;;;;;1579672;74;670;-69
2021/07/11 10:48:18;;;;;;;;;;;23.80;51.70;;;;;;1581943;73;1132;-69
2021/07/11 10:50:22;;;;;;;;;;;23.80;51.70;;;;;;1582121;73;1935;-68
2021/07/11 10:52:24;;;;;;;;;;;23.80;51.70;;;;;;1581640;73;1061;-69
2021/07/11 10:54:27;;;;;;;;;;;23.70;51.70;;;;;;1585281;73;1938;-70
2021/07/11 10:56:29;;;;;;;;;;;23.80;51.70;;;;;;1583876;74;905;-65
2021/07/11 10:58:39;;;;;;;;;;;23.80;51.70;;;;;;1576210;73;1184;-69
2021/07/11 11:00:41;;;;;;;;;;;23.80;51.70;;;;;;1578123;75;1367;-68
2021/07/11 11:02:45;;;;;;;;;;;23.80;51.70;;;;;;1579285;75;673;-69
2021/07/11 11:04:48;;;;;;;;;;;23.80;51.70;;;;;;1580343;73;681;-69
2021/07/11 11:06:50;;;;;;;;;;;23.80;51.70;;;;;;1572401;74;1684;-69
2021/07/11 11:08:52;;;;;;;;;;;23.80;51.70;;;;;;1575607;75;1137;-68
2021/07/11 11:10:56;;;;;;;;;;;23.80;51.70;;;;;;1594088;74;766;-68
2021/07/11 11:13:08;;;;;;;;;;;23.90;51.80;;;;;;1566198;75;2068;-68
2021/07/11 11:15:14;;;;;;;;;;;23.80;51.60;;;;;;1569272;74;1915;-68
2021/07/11 11:17:18;;;;;;;;;;;23.80;51.70;;;;;;1555275;76;1130;-68
2021/07/11 11:19:22;;;;;;;;;;;23.80;51.70;;;;;;1568083;76;1860;-69
2021/07/11 11:21:24;;;;;;;;;;;23.80;51.70;;;;;;1537660;76;1756;-70
2021/07/11 11:23:26;;;;;;;;;;;23.80;51.70;;;;;;1569627;76;784;-69
2021/07/11 11:25:28;;;;;;;;;;;23.80;51.70;;;;;;1572675;74;742;-65
2021/07/11 11:27:38;;;;;;;;;;;23.80;51.70;;;;;;1565931;74;1133;-69
2021/07/11 11:29:39;;;;;;;;;;;23.80;51.70;;;;;;1569486;75;1021;-69
2021/07/11 11:31:41;;;;;;;;;;;23.80;51.70;;;;;;1580893;74;779;-66
2021/07/11 11:33:47;;;;;;;;;;;23.80;51.70;;;;;;1576830;74;1942;-69
2021/07/11 11:35:48;;;;;;;;;;;23.90;51.70;;;;;;1569584;74;731;-69
2021/07/11 11:37:51;;;;;;;;;;;23.80;51.60;;;;;;1565050;76;1137;-70
2021/07/11 11:39:53;;;;;;;;;;;23.80;51.70;;;;;;1578413;74;827;-69
2021/07/11 11:41:55;;;;;;;;;;;23.90;51.70;;;;;;1569959;74;707;-69
2021/07/11 11:44:13;;;;;;;;;;;23.70;51.70;;;;;;1568309;76;777;-70
2021/07/11 11:46:30;;;;;;;;;;;23.90;51.70;;;;;;1583246;74;837;-69
2021/07/11 11:48:32;;;;;;;;;;;23.80;51.60;;;;;;1560085;76;1166;-69
2021/07/11 11:50:34;;;;;;;;;;;23.80;51.70;;;;;;1569619;76;657;-69
2021/07/11 11:52:36;;;;;;;;;;;23.80;51.70;;;;;;1559342;76;711;-69
2021/07/11 11:54:40;;;;;;;;;;;23.80;51.60;;;;;;1568421;76;1927;-69
2021/07/11 11:56:42;;;;;;;;;;;23.80;51.60;;;;;;1569629;76;800;-70
2021/07/11 11:58:43;;;;;;;;;;;23.80;51.60;;;;;;1570151;74;1116;-69
2021/07/11 12:00:45;;;;;;;;;;;23.80;51.50;;;;;;1576598;74;844;-69
2021/07/11 12:02:47;;;;;;;;;;;23.80;51.60;;;;;;1583311;74;702;-67
2021/07/11 12:04:49;;;;;;;;;;;23.80;51.60;;;;;;1550040;76;1196;-69
2021/07/11 12:06:51;;;;;;;;;;;23.90;51.70;;;;;;1585504;74;825;-69
2021/07/11 12:08:56;;;;;;;;;;;23.80;51.60;;;;;;1583269;74;1158;-69
2021/07/11 12:10:58;;;;;;;;;;;23.70;51.60;;;;;;1569760;74;1660;-69